createdAt,value
2023-01-06T00:02:23.703Z,75.15
2023-01-06T00:05:28.433Z,75.24
2023-01-06T00:08:30.398Z,75.38
2023-01-06T00:11:32.447Z,75.56
2023-01-06T00:14:34.200Z,75.54
2023-01-06T00:17:35.694Z,75.46
2023-01-06T00:20:37.514Z,75.48
2023-01-06T00:23:39.695Z,75.49
2023-01-06T00:26:41.244Z,75.62
2023-01-06T00:29:42.892Z,75.52
2023-01-06T00:32:44.523Z,75.68
2023-01-06T00:35:46.045Z,75.70
2023-01-06T00:38:49.156Z,75.58
2023-01-06T00:41:50.767Z,75.62
2023-01-06T00:44:52.371Z,75.64
2023-01-06T00:47:54.185Z,75.22
2023-01-06T00:51:00.778Z,75.35
2023-01-06T00:54:02.396Z,74.58
2023-01-06T00:57:05.452Z,74.59
2023-01-06T01:00:09.202Z,74.03
2023-01-06T01:03:10.943Z,74.43
2023-01-06T01:06:12.703Z,74.36
2023-01-06T01:09:16.708Z,74.49
2023-01-06T01:12:18.692Z,74.39
2023-01-06T01:15:20.294Z,74.24
2023-01-06T01:18:21.931Z,74.25
2023-01-06T01:21:23.687Z,74.30
2023-01-06T01:24:25.251Z,74.28
2023-01-06T01:27:26.932Z,74.23
2023-01-06T01:30:28.699Z,74.20
2023-01-06T01:33:30.614Z,74.33
2023-01-06T01:36:32.408Z,74.37
2023-01-06T01:39:34.038Z,74.27
2023-01-06T01:42:35.573Z,74.09
2023-01-06T01:45:37.336Z,73.98
2023-01-06T01:48:38.957Z,73.95
2023-01-06T01:51:48.658Z,74.05
2023-01-06T01:54:50.933Z,73.85
2023-01-06T01:57:59.072Z,73.93
2023-01-06T02:01:00.762Z,73.96
2023-01-06T02:04:02.754Z,73.94
2023-01-06T02:07:04.887Z,74.25
2023-01-06T02:10:14.582Z,74.29
2023-01-06T02:13:16.210Z,73.80
2023-01-06T02:16:27.594Z,74.04
2023-01-06T02:19:35.292Z,73.97
2023-01-06T02:23:05.163Z,73.78
2023-01-06T02:26:29.100Z,74.06
2023-01-06T02:29:58.457Z,74.09
2023-01-06T02:33:06.179Z,74.04
2023-01-06T02:36:30.079Z,74.19
2023-01-06T02:40:02.546Z,74.10
2023-01-06T02:43:26.359Z,74.19
2023-01-06T02:46:52.749Z,74.36
2023-01-06T02:50:07.293Z,74.28
2023-01-06T02:53:23.611Z,74.42
2023-01-06T02:56:29.631Z,74.38
2023-01-06T02:59:36.335Z,74.48
2023-01-06T03:02:40.184Z,74.62
2023-01-06T03:05:44.136Z,74.61
2023-01-06T03:08:47.561Z,74.70
2023-01-06T03:11:51.522Z,74.61
2023-01-06T03:14:55.259Z,74.65
2023-01-06T03:17:57.138Z,74.67
2023-01-06T03:21:04.266Z,74.75
2023-01-06T03:24:07.104Z,74.75
2023-01-06T03:27:09.272Z,74.82
2023-01-06T03:30:12.568Z,74.89
2023-01-06T03:33:23.711Z,74.74
2023-01-06T03:36:41.225Z,74.92
2023-01-06T03:40:09.581Z,74.90
2023-01-06T03:43:21.451Z,75.09
2023-01-06T03:46:27.693Z,74.96
2023-01-06T03:49:35.084Z,75.09
2023-01-06T03:52:42.552Z,75.21
2023-01-06T03:55:46.920Z,75.06
2023-01-06T03:58:51.751Z,75.01
2023-01-06T04:01:53.379Z,75.16
2023-01-06T04:05:02.193Z,75.19
2023-01-06T04:08:03.923Z,75.20
2023-01-06T04:11:05.544Z,75.19
2023-01-06T04:14:07.167Z,75.36
2023-01-06T04:17:08.880Z,75.39
2023-01-06T04:20:14.793Z,75.43
2023-01-06T04:23:16.487Z,75.45
2023-01-06T04:26:18.115Z,75.53
2023-01-06T04:29:19.795Z,75.68
2023-01-06T04:32:21.367Z,75.83
2023-01-06T04:35:23.120Z,75.86
2023-01-06T04:38:24.696Z,76.00
2023-01-06T04:41:26.416Z,75.98
2023-01-06T04:44:27.989Z,76.24
2023-01-06T04:47:29.512Z,75.96
2023-01-06T04:50:31.172Z,76.46
2023-01-06T04:53:40.113Z,76.27
2023-01-06T04:56:41.774Z,76.29
2023-01-06T04:59:43.370Z,76.27
2023-01-06T05:02:45.494Z,76.41
2023-01-06T05:05:47.215Z,76.30
2023-01-06T05:08:48.934Z,76.32
2023-01-06T05:11:50.379Z,76.26
2023-01-06T05:14:51.958Z,76.06
2023-01-06T05:21:23.098Z,76.06
2023-01-06T05:24:24.645Z,76.30
2023-01-06T05:27:26.196Z,76.33
2023-01-06T05:30:27.847Z,76.25
2023-01-06T05:33:29.590Z,76.43
2023-01-06T05:36:31.114Z,76.50
2023-01-06T05:39:32.673Z,76.54
2023-01-06T05:42:34.190Z,76.70
2023-01-06T05:45:36.887Z,76.41
2023-01-06T05:48:39.236Z,76.77
2023-01-06T05:51:40.905Z,76.80
2023-01-06T05:54:42.484Z,76.86
2023-01-06T05:57:44.155Z,76.67
2023-01-06T06:00:45.739Z,76.62
2023-01-06T06:03:47.592Z,76.65
2023-01-06T06:06:49.252Z,76.47
2023-01-06T06:09:50.779Z,76.56
2023-01-06T06:12:52.285Z,76.74
2023-01-06T06:16:09.983Z,76.62
2023-01-06T06:19:12.536Z,76.53
2023-01-06T06:22:14.262Z,76.66
2023-01-06T06:25:15.755Z,76.54
2023-01-06T06:28:17.483Z,76.69
2023-01-06T06:31:24.736Z,76.74
2023-01-06T06:34:26.379Z,76.76
2023-01-06T06:37:28.100Z,76.64
2023-01-06T06:40:29.561Z,76.66
2023-01-06T06:43:31.971Z,76.78
2023-01-06T06:46:33.542Z,76.84
2023-01-06T06:49:35.155Z,76.84
2023-01-06T06:52:36.800Z,76.71
2023-01-06T06:55:38.285Z,76.76
2023-01-06T06:58:40.292Z,76.68
2023-01-06T07:01:42.003Z,76.64
2023-01-06T07:04:43.769Z,76.80
2023-01-06T07:07:45.746Z,76.70
2023-01-06T07:10:47.259Z,76.82
2023-01-06T07:13:49.150Z,76.80
2023-01-06T07:16:50.624Z,76.58
2023-01-06T07:19:52.140Z,76.65
2023-01-06T07:22:53.826Z,76.81
2023-01-06T07:26:11.788Z,76.92
2023-01-06T07:29:16.433Z,77.18
2023-01-06T07:32:18.113Z,77.06
2023-01-06T07:35:19.865Z,77.14
2023-01-06T07:38:22.907Z,77.11
2023-01-06T07:41:24.488Z,77.16
2023-01-06T07:44:26.067Z,77.22
2023-01-06T07:47:27.855Z,77.38
2023-01-06T07:50:29.830Z,77.34
2023-01-06T07:53:31.518Z,77.39
2023-01-06T07:56:33.387Z,77.30
2023-01-06T07:59:35.034Z,77.23
2023-01-06T08:02:36.672Z,77.49
2023-01-06T08:05:39.115Z,77.45
2023-01-06T08:08:41.279Z,77.53
2023-01-06T08:11:42.863Z,77.63
2023-01-06T08:14:44.506Z,77.52
2023-01-06T08:17:45.992Z,77.70
2023-01-06T08:20:47.610Z,77.50
2023-01-06T08:23:49.187Z,77.34
2023-01-06T08:26:50.928Z,77.34
2023-01-06T08:29:52.671Z,77.34
2023-01-06T08:32:57.615Z,77.41
2023-01-06T08:36:00.530Z,77.45
2023-01-06T08:39:02.185Z,77.29
2023-01-06T08:42:03.821Z,77.21
2023-01-06T08:45:06.108Z,77.30
2023-01-06T08:48:07.724Z,77.12
2023-01-06T08:51:11.421Z,77.10
2023-01-06T08:54:13.102Z,76.99
2023-01-06T08:57:14.586Z,76.89
2023-01-06T09:00:16.677Z,76.86
2023-01-06T09:03:18.606Z,76.78
2023-01-06T09:06:21.320Z,76.75
2023-01-06T09:09:22.988Z,76.70
2023-01-06T09:12:24.602Z,76.43
2023-01-06T09:15:26.216Z,76.07
2023-01-06T09:18:27.918Z,76.09
2023-01-06T09:21:29.401Z,75.81
2023-01-06T09:24:30.991Z,75.77
2023-01-06T09:27:32.514Z,75.05
2023-01-06T09:30:34.076Z,75.46
2023-01-06T09:33:35.920Z,75.39
2023-01-06T09:36:37.822Z,75.58
2023-01-06T09:39:39.379Z,74.68
2023-01-06T09:42:52.823Z,74.57
2023-01-06T09:45:58.126Z,73.98
2023-01-06T09:49:21.738Z,74.68
2023-01-06T09:52:33.813Z,74.54
2023-01-06T09:55:40.866Z,74.40
2023-01-06T09:59:04.722Z,73.02
2023-01-06T10:02:11.876Z,72.46
2023-01-06T10:05:25.945Z,73.01
2023-01-06T10:08:39.384Z,73.40
2023-01-06T10:12:01.894Z,72.06
2023-01-06T10:15:11.047Z,71.79
2023-01-06T10:18:22.187Z,72.21
2023-01-06T10:21:23.972Z,72.57
2023-01-06T10:24:28.261Z,73.04
2023-01-06T10:27:49.397Z,72.35
2023-01-06T10:30:53.049Z,70.31
2023-01-06T10:33:55.695Z,71.52
2023-01-06T10:37:16.151Z,69.53
2023-01-06T10:40:21.858Z,69.33
2023-01-06T10:43:23.490Z,70.03
2023-01-06T10:46:25.823Z,69.11
2023-01-06T10:49:27.448Z,69.77
2023-01-06T10:52:28.992Z,68.46
2023-01-06T10:55:48.107Z,67.92
2023-01-06T10:58:56.957Z,67.11
2023-01-06T11:01:58.712Z,67.16
2023-01-06T11:05:03.456Z,67.74
2023-01-06T11:08:07.833Z,68.72
2023-01-06T11:11:26.832Z,68.05
2023-01-06T11:14:31.835Z,66.67
2023-01-06T11:17:33.611Z,64.59
2023-01-06T11:20:35.279Z,62.91
2023-01-06T11:23:41.906Z,63.40
2023-01-06T11:26:45.730Z,61.89
2023-01-06T11:29:47.475Z,63.04
2023-01-06T11:32:48.907Z,63.95
2023-01-06T11:35:51.244Z,63.02
2023-01-06T11:39:04.110Z,63.12
2023-01-06T11:42:12.802Z,63.13
2023-01-06T11:45:34.661Z,64.20
2023-01-06T11:48:40.576Z,63.29
2023-01-06T11:51:42.198Z,64.16
2023-01-06T11:54:43.912Z,63.93
2023-01-06T11:57:59.935Z,65.06
2023-01-06T12:01:07.804Z,66.18
2023-01-06T12:04:17.462Z,66.38
2023-01-06T12:07:30.950Z,67.34
2023-01-06T12:10:33.603Z,67.87
2023-01-06T12:13:44.382Z,68.02
2023-01-06T12:16:58.423Z,68.29
2023-01-06T12:20:27.552Z,68.58
2023-01-06T12:23:35.992Z,68.97
2023-01-06T12:26:37.902Z,69.20
2023-01-06T12:29:39.773Z,69.48
2023-01-06T12:32:45.233Z,69.08
2023-01-06T12:35:49.880Z,68.74
2023-01-06T12:38:57.871Z,68.95
2023-01-06T12:42:43.924Z,68.95
2023-01-06T12:45:58.421Z,68.48
2023-01-06T12:49:04.638Z,69.06
2023-01-06T12:52:12.242Z,68.74
2023-01-06T12:55:21.018Z,68.92
2023-01-06T12:58:47.950Z,69.10
2023-01-06T13:01:56.441Z,69.21
2023-01-06T13:05:04.197Z,69.11
2023-01-06T13:08:05.760Z,69.21
2023-01-06T13:11:10.080Z,69.33
2023-01-06T13:14:20.605Z,69.09
2023-01-06T13:18:04.734Z,69.28
2023-01-06T13:21:14.788Z,69.41
2023-01-06T13:24:54.461Z,69.68
2023-01-06T13:27:58.967Z,69.74
2023-01-06T13:31:15.179Z,70.20
2023-01-06T13:34:51.974Z,70.20
2023-01-06T13:38:04.079Z,70.19
2023-01-06T13:41:10.518Z,70.52
2023-01-06T13:44:20.113Z,70.42
2023-01-06T13:47:22.769Z,70.70
2023-01-06T13:50:24.444Z,70.86
2023-01-06T13:53:25.950Z,70.93
2023-01-06T13:56:29.643Z,70.91
2023-01-06T13:59:51.762Z,70.96
2023-01-06T14:02:53.362Z,70.95
2023-01-06T14:05:55.043Z,71.12
2023-01-06T14:08:59.042Z,71.24
2023-01-06T14:12:14.581Z,71.35
2023-01-06T14:15:23.544Z,71.87
2023-01-06T14:18:34.288Z,71.86
2023-01-06T14:21:35.892Z,71.81
2023-01-06T14:24:37.413Z,71.90
2023-01-06T14:27:48.297Z,72.11
2023-01-06T14:30:52.219Z,72.04
2023-01-06T14:33:59.257Z,72.48
2023-01-06T14:37:02.704Z,72.88
2023-01-06T14:40:05.983Z,73.06
2023-01-06T14:43:28.686Z,73.13
2023-01-06T14:46:33.665Z,72.90
2023-01-06T14:49:46.081Z,73.16
2023-01-06T14:53:20.847Z,72.82
2023-01-06T14:56:24.700Z,72.89
2023-01-06T14:59:27.077Z,73.06
2023-01-06T15:02:29.041Z,72.64
2023-01-06T15:05:35.005Z,72.91
2023-01-06T15:08:36.706Z,72.96
2023-01-06T15:11:40.287Z,73.02
2023-01-06T15:14:41.904Z,73.27
2023-01-06T15:17:43.656Z,73.57
2023-01-06T15:20:45.192Z,73.56
2023-01-06T15:23:49.079Z,73.28
2023-01-06T15:26:52.205Z,72.95
2023-01-06T15:29:56.054Z,73.34
2023-01-06T15:32:57.910Z,73.54
2023-01-06T15:36:00.140Z,73.58
2023-01-06T15:39:03.459Z,73.79
2023-01-06T15:42:06.012Z,73.99
2023-01-06T15:45:23.038Z,73.87
2023-01-06T15:48:28.734Z,74.10
2023-01-06T15:51:30.284Z,74.07
2023-01-06T15:54:34.277Z,74.09
2023-01-06T15:57:39.637Z,73.98
2023-01-06T16:00:43.523Z,73.97
2023-01-06T16:03:53.811Z,73.92
2023-01-06T16:06:55.368Z,74.14
2023-01-06T16:09:56.891Z,74.33
2023-01-06T16:13:16.988Z,74.26
2023-01-06T16:16:18.501Z,74.13
2023-01-06T16:19:22.460Z,74.14
2023-01-06T16:22:54.329Z,74.25
2023-01-06T16:26:10.666Z,74.63
2023-01-06T16:30:07.353Z,74.65
2023-01-06T16:33:38.089Z,74.72
2023-01-06T16:36:39.862Z,74.62
2023-01-06T16:39:41.404Z,74.76
2023-01-06T16:42:43.572Z,74.78
2023-01-06T16:45:46.514Z,74.85
2023-01-06T16:48:48.618Z,74.89
2023-01-06T16:51:50.707Z,74.98
2023-01-06T16:54:53.477Z,75.04
2023-01-06T16:57:56.241Z,74.99
2023-01-06T17:01:12.756Z,74.99
2023-01-06T17:04:15.587Z,74.94
2023-01-06T17:07:17.288Z,75.26
2023-01-06T17:10:20.822Z,75.41
2023-01-06T17:13:22.590Z,75.46
2023-01-06T17:16:25.540Z,75.38
2023-01-06T17:19:29.419Z,75.39
2023-01-06T17:22:31.349Z,75.45
2023-01-06T17:25:32.975Z,75.54
2023-01-06T17:28:34.718Z,75.59
2023-01-06T17:31:41.883Z,75.54
2023-01-06T17:34:44.037Z,75.30
2023-01-06T17:37:45.835Z,75.46
2023-01-06T17:40:48.362Z,75.42
2023-01-06T17:43:49.892Z,75.65
2023-01-06T17:46:51.632Z,75.90
2023-01-06T17:49:57.715Z,75.64
2023-01-06T17:53:17.609Z,75.95
2023-01-06T17:56:21.782Z,75.79
2023-01-06T17:59:23.448Z,75.95
2023-01-06T18:02:33.924Z,76.01
2023-01-06T18:05:35.579Z,76.08
2023-01-06T18:08:37.969Z,76.05
2023-01-06T18:11:50.906Z,76.39
2023-01-06T18:14:53.063Z,76.51
2023-01-06T18:17:55.827Z,76.35
2023-01-06T18:21:04.704Z,76.38
2023-01-06T18:24:35.258Z,76.14
2023-01-06T18:27:37.030Z,76.04
2023-01-06T18:30:38.739Z,76.14
2023-01-06T18:33:40.257Z,76.22
2023-01-06T18:36:44.693Z,76.06
2023-01-06T18:39:48.344Z,76.44
2023-01-06T18:42:51.490Z,76.67
2023-01-06T18:45:54.916Z,76.89
2023-01-06T18:48:56.474Z,76.93
2023-01-06T18:51:58.497Z,77.09
2023-01-06T18:55:00.121Z,76.64
2023-01-06T18:58:03.088Z,76.58
2023-01-06T19:01:15.966Z,76.58
2023-01-06T19:04:30.676Z,76.89
2023-01-06T19:07:33.897Z,76.67
2023-01-06T19:10:35.466Z,76.83
2023-01-06T19:13:38.014Z,76.54
2023-01-06T19:16:50.812Z,76.84
2023-01-06T19:19:53.012Z,76.98
2023-01-06T19:22:55.832Z,77.04
2023-01-06T19:26:17.122Z,77.15
2023-01-06T19:29:18.853Z,77.16
2023-01-06T19:32:20.300Z,77.21
2023-01-06T19:35:23.129Z,77.54
2023-01-06T19:38:28.452Z,77.79
2023-01-06T19:41:32.667Z,78.06
2023-01-06T19:44:36.566Z,77.84
2023-01-06T19:47:40.034Z,77.84
2023-01-06T19:50:41.634Z,77.72
2023-01-06T19:53:59.635Z,77.77
2023-01-06T19:57:01.264Z,77.73
2023-01-06T20:00:03.223Z,77.98
2023-01-06T20:03:30.568Z,77.89
2023-01-06T20:06:32.148Z,78.17
2023-01-06T20:09:34.187Z,78.06
2023-01-06T20:12:36.266Z,78.20
2023-01-06T20:15:38.790Z,77.92
2023-01-06T20:18:40.412Z,77.77
2023-01-06T20:21:42.853Z,77.96
2023-01-06T20:24:44.488Z,77.86
2023-01-06T20:27:45.984Z,77.93
2023-01-06T20:30:47.552Z,78.15
2023-01-06T20:33:49.138Z,78.11
2023-01-06T20:36:50.759Z,78.04
2023-01-06T20:39:52.385Z,77.89
2023-01-06T20:42:54.024Z,78.13
2023-01-06T20:45:55.698Z,78.35
2023-01-06T20:48:57.397Z,78.29
2023-01-06T20:51:59.000Z,78.57
2023-01-06T20:55:01.066Z,78.42
2023-01-06T20:58:02.925Z,79.79
2023-01-06T21:01:04.720Z,80.27
2023-01-06T21:04:06.364Z,79.54
2023-01-06T21:07:08.097Z,79.40
2023-01-06T21:10:09.710Z,79.34
2023-01-06T21:13:11.340Z,79.23
2023-01-06T21:16:12.954Z,79.38
2023-01-06T21:19:14.645Z,79.24
2023-01-06T21:22:16.363Z,79.23
2023-01-06T21:25:18.097Z,79.14
2023-01-06T21:28:19.789Z,79.49
2023-01-06T21:31:21.563Z,79.33
2023-01-06T21:34:23.119Z,79.32
2023-01-06T21:37:24.835Z,79.24
2023-01-06T21:40:26.470Z,79.49
2023-01-06T21:43:28.069Z,79.67
2023-01-06T21:46:30.514Z,79.96
2023-01-06T21:49:32.615Z,80.73
2023-01-06T21:52:34.308Z,80.90
2023-01-06T21:55:36.086Z,81.19
2023-01-06T21:58:37.776Z,82.17
2023-01-06T22:01:39.567Z,83.89
2023-01-06T22:04:41.226Z,84.02
2023-01-06T22:07:45.974Z,84.33
2023-01-06T22:10:47.786Z,84.50
2023-01-06T22:13:49.723Z,84.75
2023-01-06T22:16:51.637Z,85.11
2023-01-06T22:19:54.302Z,84.53
2023-01-06T22:22:55.995Z,83.97
2023-01-06T22:25:57.510Z,83.84
2023-01-06T22:28:59.114Z,84.83
2023-01-06T22:32:02.282Z,85.01
2023-01-06T22:35:04.176Z,85.03
2023-01-06T22:38:05.929Z,84.99
2023-01-06T22:41:07.528Z,85.49
2023-01-06T22:44:09.029Z,85.76
2023-01-06T22:47:10.610Z,85.19
2023-01-06T22:50:12.234Z,85.61
2023-01-06T22:53:13.809Z,85.17
2023-01-06T22:56:15.445Z,85.15
2023-01-06T22:59:17.095Z,85.39
2023-01-06T23:02:19.278Z,85.81
2023-01-06T23:05:21.197Z,86.07
2023-01-06T23:08:22.932Z,85.60
2023-01-06T23:11:24.563Z,85.94
2023-01-06T23:14:26.115Z,86.68
2023-01-06T23:17:27.697Z,86.70
2023-01-06T23:20:29.239Z,86.83
2023-01-06T23:23:32.169Z,86.75
2023-01-06T23:26:38.965Z,86.51
2023-01-06T23:29:40.683Z,85.64
2023-01-06T23:32:42.184Z,85.76
2023-01-06T23:35:43.770Z,85.26
2023-01-06T23:38:45.844Z,85.55
2023-01-06T23:41:48.024Z,86.02
2023-01-06T23:44:49.612Z,86.00
2023-01-06T23:47:51.218Z,86.11
2023-01-06T23:50:53.215Z,86.69
2023-01-06T23:53:55.312Z,86.33
2023-01-06T23:56:56.863Z,85.74
2023-01-06T23:59:58.334Z,85.56
